sensor_id;sensor_type;location;lat;lon;timestamp;pressure;altitude;pressure_sealevel;temperature;humidity
77881;BME280;67077;50.298;18.996;2024-03-08T00:00:21;98567.80;;;-2.18;100.00
77881;BME280;67077;50.298;18.996;2024-03-08T00:03:29;98568.63;;;-2.20;100.00
77881;BME280;67077;50.298;18.996;2024-03-08T00:05:58;98569.12;;;-2.21;100.00
77881;BME280;67077;50.298;18.996;2024-03-08T00:08:26;98573.80;;;-2.22;100.00
77881;BME280;67077;50.298;18.996;2024-03-08T00:10:53;98569.33;;;-2.24;100.00
77881;BME280;67077;50.298;18.996;2024-03-08T00:13:21;98570.48;;;-2.25;100.00
77881;BME280;67077;50.298;18.996;2024-03-08T00:15:49;98568.61;;;-2.26;100.00
77881;BME280;67077;50.298;18.996;2024-03-08T00:18:17;98569.70;;;-2.26;100.00
77881;BME280;67077;50.298;18.996;2024-03-08T00:20:47;98565.54;;;-2.27;100.00
77881;BME280;67077;50.298;18.996;2024-03-08T00:23:15;98562.95;;;-2.28;100.00
77881;BME280;67077;50.298;18.996;2024-03-08T00:25:43;98562.55;;;-2.27;100.00
77881;BME280;67077;50.298;18.996;2024-03-08T00:28:11;98564.64;;;-2.27;100.00
77881;BME280;67077;50.298;18.996;2024-03-08T00:30:42;98562.20;;;-2.27;100.00
77881;BME280;67077;50.298;18.996;2024-03-08T00:33:10;98555.55;;;-2.28;100.00
77881;BME280;67077;50.298;18.996;2024-03-08T00:35:38;98558.33;;;-2.30;100.00
77881;BME280;67077;50.298;18.996;2024-03-08T00:38:06;98554.89;;;-2.31;100.00
77881;BME280;67077;50.298;18.996;2024-03-08T00:40:34;98554.61;;;-2.32;100.00
77881;BME280;67077;50.298;18.996;2024-03-08T00:43:02;98552.55;;;-2.32;100.00
77881;BME280;67077;50.298;18.996;2024-03-08T00:45:31;98557.75;;;-2.33;100.00
77881;BME280;67077;50.298;18.996;2024-03-08T00:47:59;98553.98;;;-2.35;100.00
77881;BME280;67077;50.298;18.996;2024-03-08T00:50:29;98549.65;;;-2.35;100.00
77881;BME280;67077;50.298;18.996;2024-03-08T00:52:57;98552.23;;;-2.37;100.00
77881;BME280;67077;50.298;18.996;2024-03-08T00:55:25;98548.64;;;-2.38;100.00
77881;BME280;67077;50.298;18.996;2024-03-08T00:57:54;98547.21;;;-2.40;100.00
77881;BME280;67077;50.298;18.996;2024-03-08T01:00:22;98546.05;;;-2.42;100.00
77881;BME280;67077;50.298;18.996;2024-03-08T01:02:49;98541.08;;;-2.43;100.00
77881;BME280;67077;50.298;18.996;2024-03-08T01:05:17;98541.38;;;-2.45;100.00
77881;BME280;67077;50.298;18.996;2024-03-08T01:07:45;98542.52;;;-2.46;100.00
77881;BME280;67077;50.298;18.996;2024-03-08T01:10:14;98539.83;;;-2.47;100.00
77881;BME280;67077;50.298;18.996;2024-03-08T01:12:41;98537.14;;;-2.49;100.00
77881;BME280;67077;50.298;18.996;2024-03-08T01:15:10;98536.93;;;-2.51;100.00
77881;BME280;67077;50.298;18.996;2024-03-08T01:17:38;98536.37;;;-2.52;100.00
77881;BME280;67077;50.298;18.996;2024-03-08T01:20:07;98532.23;;;-2.54;100.00
77881;BME280;67077;50.298;18.996;2024-03-08T01:22:34;98524.67;;;-2.56;100.00
77881;BME280;67077;50.298;18.996;2024-03-08T01:25:03;98524.02;;;-2.56;100.00
77881;BME280;67077;50.298;18.996;2024-03-08T01:27:32;98522.34;;;-2.58;100.00
77881;BME280;67077;50.298;18.996;2024-03-08T01:30:00;98523.87;;;-2.59;100.00
77881;BME280;67077;50.298;18.996;2024-03-08T01:32:27;98513.91;;;-2.60;100.00
77881;BME280;67077;50.298;18.996;2024-03-08T01:34:55;98516.79;;;-2.61;100.00
77881;BME280;67077;50.298;18.996;2024-03-08T01:37:23;98514.95;;;-2.62;100.00
77881;BME280;67077;50.298;18.996;2024-03-08T01:39:51;98514.22;;;-2.64;100.00
77881;BME280;67077;50.298;18.996;2024-03-08T01:42:19;98512.57;;;-2.65;100.00
77881;BME280;67077;50.298;18.996;2024-03-08T01:44:47;98508.85;;;-2.67;100.00
77881;BME280;67077;50.298;18.996;2024-03-08T01:47:15;98505.77;;;-2.68;100.00
77881;BME280;67077;50.298;18.996;2024-03-08T01:49:43;98502.01;;;-2.70;100.00
77881;BME280;67077;50.298;18.996;2024-03-08T01:52:11;98500.19;;;-2.71;100.00
77881;BME280;67077;50.298;18.996;2024-03-08T01:54:39;98499.52;;;-2.72;100.00
77881;BME280;67077;50.298;18.996;2024-03-08T01:57:08;98500.17;;;-2.73;100.00
77881;BME280;67077;50.298;18.996;2024-03-08T01:59:36;98500.95;;;-2.74;100.00
77881;BME280;67077;50.298;18.996;2024-03-08T02:02:05;98505.59;;;-2.75;100.00
77881;BME280;67077;50.298;18.996;2024-03-08T02:04:34;98503.09;;;-2.74;100.00
77881;BME280;67077;50.298;18.996;2024-03-08T02:07:01;98498.91;;;-2.75;100.00
77881;BME280;67077;50.298;18.996;2024-03-08T02:09:32;98500.54;;;-2.76;100.00
77881;BME280;67077;50.298;18.996;2024-03-08T02:12:00;98496.24;;;-2.77;100.00
77881;BME280;67077;50.298;18.996;2024-03-08T02:14:28;98496.23;;;-2.79;100.00
77881;BME280;67077;50.298;18.996;2024-03-08T02:17:00;98497.71;;;-2.82;100.00
77881;BME280;67077;50.298;18.996;2024-03-08T02:19:28;98497.53;;;-2.84;100.00
77881;BME280;67077;50.298;18.996;2024-03-08T02:21:57;98493.05;;;-2.87;100.00
77881;BME280;67077;50.298;18.996;2024-03-08T02:24:25;98492.55;;;-2.90;100.00
77881;BME280;67077;50.298;18.996;2024-03-08T02:26:53;98489.44;;;-2.93;100.00
77881;BME280;67077;50.298;18.996;2024-03-08T02:29:21;98488.80;;;-2.96;100.00
77881;BME280;67077;50.298;18.996;2024-03-08T02:31:51;98490.63;;;-2.99;100.00
77881;BME280;67077;50.298;18.996;2024-03-08T02:34:19;98489.49;;;-3.00;100.00
77881;BME280;67077;50.298;18.996;2024-03-08T02:36:47;98487.20;;;-3.02;100.00
77881;BME280;67077;50.298;18.996;2024-03-08T02:39:15;98484.04;;;-3.05;100.00
77881;BME280;67077;50.298;18.996;2024-03-08T02:41:43;98479.95;;;-3.06;100.00
77881;BME280;67077;50.298;18.996;2024-03-08T02:44:11;98481.64;;;-3.08;100.00
77881;BME280;67077;50.298;18.996;2024-03-08T02:46:39;98482.61;;;-3.09;100.00
77881;BME280;67077;50.298;18.996;2024-03-08T02:49:07;98482.38;;;-3.10;100.00
77881;BME280;67077;50.298;18.996;2024-03-08T02:51:35;98480.23;;;-3.12;100.00
77881;BME280;67077;50.298;18.996;2024-03-08T02:54:03;98479.95;;;-3.13;100.00
77881;BME280;67077;50.298;18.996;2024-03-08T02:56:31;98479.17;;;-3.14;100.00
77881;BME280;67077;50.298;18.996;2024-03-08T02:59:02;98480.83;;;-3.15;100.00
77881;BME280;67077;50.298;18.996;2024-03-08T03:01:30;98480.55;;;-3.16;100.00
77881;BME280;67077;50.298;18.996;2024-03-08T03:03:59;98475.33;;;-3.17;100.00
77881;BME280;67077;50.298;18.996;2024-03-08T03:06:27;98476.70;;;-3.18;100.00
77881;BME280;67077;50.298;18.996;2024-03-08T03:08:55;98477.10;;;-3.19;100.00
77881;BME280;67077;50.298;18.996;2024-03-08T03:11:25;98477.73;;;-3.20;100.00
77881;BME280;67077;50.298;18.996;2024-03-08T03:13:53;98476.19;;;-3.21;100.00
77881;BME280;67077;50.298;18.996;2024-03-08T03:16:21;98478.17;;;-3.21;100.00
77881;BME280;67077;50.298;18.996;2024-03-08T03:18:49;98475.57;;;-3.22;100.00
77881;BME280;67077;50.298;18.996;2024-03-08T03:21:16;98477.05;;;-3.23;100.00
77881;BME280;67077;50.298;18.996;2024-03-08T03:23:45;98472.86;;;-3.23;100.00
77881;BME280;67077;50.298;18.996;2024-03-08T03:26:12;98474.66;;;-3.24;100.00
77881;BME280;67077;50.298;18.996;2024-03-08T03:28:40;98479.24;;;-3.24;100.00
77881;BME280;67077;50.298;18.996;2024-03-08T03:31:09;98482.30;;;-3.25;100.00
77881;BME280;67077;50.298;18.996;2024-03-08T03:33:41;98481.52;;;-3.26;100.00
77881;BME280;67077;50.298;18.996;2024-03-08T03:36:09;98477.52;;;-3.27;100.00
77881;BME280;67077;50.298;18.996;2024-03-08T03:38:37;98473.91;;;-3.27;100.00
77881;BME280;67077;50.298;18.996;2024-03-08T03:41:05;98478.80;;;-3.27;100.00
77881;BME280;67077;50.298;18.996;2024-03-08T03:43:37;98475.99;;;-3.27;100.00
77881;BME280;67077;50.298;18.996;2024-03-08T03:46:09;98474.23;;;-3.27;100.00
77881;BME280;67077;50.298;18.996;2024-03-08T03:48:38;98470.44;;;-3.26;100.00
77881;BME280;67077;50.298;18.996;2024-03-08T03:51:05;98463.29;;;-3.25;100.00
77881;BME280;67077;50.298;18.996;2024-03-08T03:53:35;98466.36;;;-3.24;100.00
77881;BME280;67077;50.298;18.996;2024-03-08T03:56:03;98463.96;;;-3.22;100.00
77881;BME280;67077;50.298;18.996;2024-03-08T03:58:34;98468.16;;;-3.22;100.00
77881;BME280;67077;50.298;18.996;2024-03-08T04:01:04;98469.88;;;-3.21;100.00
77881;BME280;67077;50.298;18.996;2024-03-08T04:03:32;98465.48;;;-3.21;100.00
77881;BME280;67077;50.298;18.996;2024-03-08T04:06:00;98463.23;;;-3.22;100.00
77881;BME280;67077;50.298;18.996;2024-03-08T04:08:28;98464.32;;;-3.22;100.00
77881;BME280;67077;50.298;18.996;2024-03-08T04:10:56;98458.73;;;-3.23;100.00
77881;BME280;67077;50.298;18.996;2024-03-08T04:13:26;98457.13;;;-3.23;100.00
77881;BME280;67077;50.298;18.996;2024-03-08T04:15:54;98454.33;;;-3.23;100.00
77881;BME280;67077;50.298;18.996;2024-03-08T04:18:22;98456.67;;;-3.24;100.00
77881;BME280;67077;50.298;18.996;2024-03-08T04:20:49;98456.39;;;-3.25;100.00
77881;BME280;67077;50.298;18.996;2024-03-08T04:23:17;98458.04;;;-3.25;100.00
77881;BME280;67077;50.298;18.996;2024-03-08T04:25:45;98459.86;;;-3.26;100.00
77881;BME280;67077;50.298;18.996;2024-03-08T04:28:14;98460.97;;;-3.27;100.00
77881;BME280;67077;50.298;18.996;2024-03-08T04:30:42;98454.80;;;-3.26;100.00
77881;BME280;67077;50.298;18.996;2024-03-08T04:33:09;98455.09;;;-3.26;100.00
77881;BME280;67077;50.298;18.996;2024-03-08T04:35:37;98458.88;;;-3.25;100.00
77881;BME280;67077;50.298;18.996;2024-03-08T04:38:05;98455.52;;;-3.24;100.00
77881;BME280;67077;50.298;18.996;2024-03-08T04:40:33;98458.39;;;-3.23;100.00
77881;BME280;67077;50.298;18.996;2024-03-08T04:43:02;98459.87;;;-3.21;100.00
77881;BME280;67077;50.298;18.996;2024-03-08T04:45:30;98459.98;;;-3.21;100.00
77881;BME280;67077;50.298;18.996;2024-03-08T04:47:57;98459.84;;;-3.19;100.00
77881;BME280;67077;50.298;18.996;2024-03-08T04:50:25;98458.04;;;-3.19;100.00
77881;BME280;67077;50.298;18.996;2024-03-08T04:52:56;98457.63;;;-3.18;100.00
77881;BME280;67077;50.298;18.996;2024-03-08T04:55:24;98456.63;;;-3.17;100.00
77881;BME280;67077;50.298;18.996;2024-03-08T04:57:52;98463.69;;;-3.15;100.00
77881;BME280;67077;50.298;18.996;2024-03-08T05:00:20;98462.45;;;-3.13;100.00
77881;BME280;67077;50.298;18.996;2024-03-08T05:02:48;98459.75;;;-3.10;100.00
77881;BME280;67077;50.298;18.996;2024-03-08T05:05:16;98463.73;;;-3.04;100.00
77881;BME280;67077;50.298;18.996;2024-03-08T05:07:44;98460.32;;;-2.97;100.00
77881;BME280;67077;50.298;18.996;2024-03-08T05:10:13;98460.33;;;-2.88;100.00
77881;BME280;67077;50.298;18.996;2024-03-08T05:12:45;98466.20;;;-2.78;100.00
77881;BME280;67077;50.298;18.996;2024-03-08T05:15:13;98468.29;;;-2.69;100.00
77881;BME280;67077;50.298;18.996;2024-03-08T05:17:40;98468.27;;;-2.61;100.00
77881;BME280;67077;50.298;18.996;2024-03-08T05:20:09;98468.80;;;-2.53;100.00
77881;BME280;67077;50.298;18.996;2024-03-08T05:22:40;98474.11;;;-2.44;100.00
77881;BME280;67077;50.298;18.996;2024-03-08T05:25:08;98472.70;;;-2.38;100.00
77881;BME280;67077;50.298;18.996;2024-03-08T05:27:36;98473.08;;;-2.32;100.00
77881;BME280;67077;50.298;18.996;2024-03-08T05:30:04;98476.27;;;-2.26;100.00
77881;BME280;67077;50.298;18.996;2024-03-08T05:32:32;98478.09;;;-2.20;100.00
77881;BME280;67077;50.298;18.996;2024-03-08T05:35:00;98472.79;;;-2.14;100.00
77881;BME280;67077;50.298;18.996;2024-03-08T05:37:28;98474.04;;;-2.07;100.00
77881;BME280;67077;50.298;18.996;2024-03-08T05:39:56;98474.58;;;-2.02;100.00
77881;BME280;67077;50.298;18.996;2024-03-08T05:42:24;98471.84;;;-1.96;100.00
77881;BME280;67077;50.298;18.996;2024-03-08T05:44:51;98475.69;;;-1.90;100.00
77881;BME280;67077;50.298;18.996;2024-03-08T05:47:19;98473.83;;;-1.85;100.00
77881;BME280;67077;50.298;18.996;2024-03-08T05:49:47;98477.45;;;-1.79;100.00
77881;BME280;67077;50.298;18.996;2024-03-08T05:52:15;98473.70;;;-1.75;100.00
77881;BME280;67077;50.298;18.996;2024-03-08T05:54:43;98475.96;;;-1.71;100.00
77881;BME280;67077;50.298;18.996;2024-03-08T05:57:11;98479.73;;;-1.67;100.00
77881;BME280;67077;50.298;18.996;2024-03-08T05:59:39;98479.31;;;-1.62;100.00
77881;BME280;67077;50.298;18.996;2024-03-08T06:02:07;98483.53;;;-1.58;100.00
77881;BME280;67077;50.298;18.996;2024-03-08T06:04:35;98481.88;;;-1.54;100.00
77881;BME280;67077;50.298;18.996;2024-03-08T06:07:03;98478.34;;;-1.49;100.00
77881;BME280;67077;50.298;18.996;2024-03-08T06:09:30;98482.17;;;-1.46;100.00
77881;BME280;67077;50.298;18.996;2024-03-08T06:11:58;98482.95;;;-1.43;100.00
77881;BME280;67077;50.298;18.996;2024-03-08T06:14:26;98482.55;;;-1.41;100.00
77881;BME280;67077;50.298;18.996;2024-03-08T06:16:54;98475.15;;;-1.39;100.00
77881;BME280;67077;50.298;18.996;2024-03-08T06:19:22;98476.45;;;-1.38;100.00
77881;BME280;67077;50.298;18.996;2024-03-08T06:21:50;98475.93;;;-1.36;100.00
77881;BME280;67077;50.298;18.996;2024-03-08T06:24:18;98474.77;;;-1.33;100.00
77881;BME280;67077;50.298;18.996;2024-03-08T06:26:47;98475.02;;;-1.30;100.00
77881;BME280;67077;50.298;18.996;2024-03-08T06:29:14;98475.70;;;-1.26;100.00
77881;BME280;67077;50.298;18.996;2024-03-08T06:31:43;98473.80;;;-1.24;100.00
77881;BME280;67077;50.298;18.996;2024-03-08T06:34:11;98474.15;;;-1.22;100.00
77881;BME280;67077;50.298;18.996;2024-03-08T06:36:39;98475.27;;;-1.18;100.00
77881;BME280;67077;50.298;18.996;2024-03-08T06:39:07;98478.02;;;-1.17;100.00
77881;BME280;67077;50.298;18.996;2024-03-08T06:41:37;98479.20;;;-1.16;100.00
77881;BME280;67077;50.298;18.996;2024-03-08T06:44:05;98480.67;;;-1.13;100.00
77881;BME280;67077;50.298;18.996;2024-03-08T06:46:32;98476.01;;;-1.07;100.00
77881;BME280;67077;50.298;18.996;2024-03-08T06:49:01;98471.36;;;-1.02;100.00
77881;BME280;67077;50.298;18.996;2024-03-08T06:51:30;98471.27;;;-0.97;100.00
77881;BME280;67077;50.298;18.996;2024-03-08T06:53:58;98467.09;;;-0.92;100.00
77881;BME280;67077;50.298;18.996;2024-03-08T06:56:26;98467.73;;;-0.87;100.00
77881;BME280;67077;50.298;18.996;2024-03-08T06:58:54;98469.25;;;-0.81;100.00
77881;BME280;67077;50.298;18.996;2024-03-08T07:01:22;98470.56;;;-0.78;100.00
77881;BME280;67077;50.298;18.996;2024-03-08T07:03:50;98469.98;;;-0.77;100.00
77881;BME280;67077;50.298;18.996;2024-03-08T07:06:20;98468.59;;;-0.76;100.00
77881;BME280;67077;50.298;18.996;2024-03-08T07:08:48;98467.34;;;-0.72;100.00
77881;BME280;67077;50.298;18.996;2024-03-08T07:11:16;98466.20;;;-0.67;100.00
77881;BME280;67077;50.298;18.996;2024-03-08T07:13:45;98465.16;;;-0.65;100.00
77881;BME280;67077;50.298;18.996;2024-03-08T07:16:13;98466.89;;;-0.65;100.00
77881;BME280;67077;50.298;18.996;2024-03-08T07:18:41;98462.23;;;-0.66;100.00
77881;BME280;67077;50.298;18.996;2024-03-08T07:21:11;98461.31;;;-0.62;100.00
77881;BME280;67077;50.298;18.996;2024-03-08T07:23:39;98461.94;;;-0.57;100.00
77881;BME280;67077;50.298;18.996;2024-03-08T07:26:37;98460.90;;;-0.59;100.00
77881;BME280;67077;50.298;18.996;2024-03-08T07:29:06;98464.61;;;-0.57;100.00
77881;BME280;67077;50.298;18.996;2024-03-08T07:31:35;98466.16;;;-0.51;100.00
77881;BME280;67077;50.298;18.996;2024-03-08T07:34:26;98466.77;;;-0.44;100.00
77881;BME280;67077;50.298;18.996;2024-03-08T07:36:54;98467.78;;;-0.36;100.00
77881;BME280;67077;50.298;18.996;2024-03-08T07:39:24;98469.27;;;-0.25;100.00
77881;BME280;67077;50.298;18.996;2024-03-08T07:41:52;98470.36;;;-0.18;100.00
77881;BME280;67077;50.298;18.996;2024-03-08T07:44:22;98472.12;;;-0.10;100.00
77881;BME280;67077;50.298;18.996;2024-03-08T07:46:51;98473.80;;;-0.02;100.00
77881;BME280;67077;50.298;18.996;2024-03-08T07:49:19;98475.09;;;0.06;100.00
77881;BME280;67077;50.298;18.996;2024-03-08T07:51:47;98475.52;;;0.11;100.00
77881;BME280;67077;50.298;18.996;2024-03-08T07:54:16;98475.59;;;0.16;100.00
77881;BME280;67077;50.298;18.996;2024-03-08T07:56:44;98475.56;;;0.18;100.00
77881;BME280;67077;50.298;18.996;2024-03-08T07:59:12;98475.79;;;0.19;100.00
77881;BME280;67077;50.298;18.996;2024-03-08T08:01:40;98477.73;;;0.17;100.00
77881;BME280;67077;50.298;18.996;2024-03-08T08:04:08;98480.69;;;0.18;100.00
77881;BME280;67077;50.298;18.996;2024-03-08T08:06:40;98482.34;;;0.17;100.00
77881;BME280;67077;50.298;18.996;2024-03-08T08:09:10;98478.84;;;0.17;100.00
77881;BME280;67077;50.298;18.996;2024-03-08T08:11:50;98478.84;;;0.11;100.00
77881;BME280;67077;50.298;18.996;2024-03-08T08:14:18;98481.27;;;0.03;100.00
77881;BME280;67077;50.298;18.996;2024-03-08T08:16:45;98484.43;;;0.00;100.00
77881;BME280;67077;50.298;18.996;2024-03-08T08:19:16;98477.98;;;0.04;100.00
77881;BME280;67077;50.298;18.996;2024-03-08T08:21:44;98477.35;;;0.06;100.00
77881;BME280;67077;50.298;18.996;2024-03-08T08:24:11;98477.59;;;0.09;100.00
77881;BME280;67077;50.298;18.996;2024-03-08T08:26:39;98482.27;;;0.07;100.00
77881;BME280;67077;50.298;18.996;2024-03-08T08:29:07;98480.74;;;0.04;100.00
77881;BME280;67077;50.298;18.996;2024-03-08T08:31:35;98482.29;;;0.01;100.00
77881;BME280;67077;50.298;18.996;2024-03-08T08:34:04;98483.50;;;-0.01;100.00
77881;BME280;67077;50.298;18.996;2024-03-08T08:36:32;98484.21;;;0.01;100.00
77881;BME280;67077;50.298;18.996;2024-03-08T08:39:01;98480.59;;;0.08;100.00
77881;BME280;67077;50.298;18.996;2024-03-08T08:41:31;98474.59;;;0.22;100.00
77881;BME280;67077;50.298;18.996;2024-03-08T08:43:59;98473.52;;;0.35;100.00
77881;BME280;67077;50.298;18.996;2024-03-08T08:46:27;98473.64;;;0.42;100.00
77881;BME280;67077;50.298;18.996;2024-03-08T08:48:56;98474.71;;;0.52;100.00
77881;BME280;67077;50.298;18.996;2024-03-08T08:51:26;98469.15;;;0.63;100.00
77881;BME280;67077;50.298;18.996;2024-03-08T08:54:05;98469.92;;;0.71;100.00
77881;BME280;67077;50.298;18.996;2024-03-08T08:56:34;98471.08;;;0.76;100.00
77881;BME280;67077;50.298;18.996;2024-03-08T08:59:02;98471.91;;;0.80;100.00
77881;BME280;67077;50.298;18.996;2024-03-08T09:01:31;98473.23;;;0.83;100.00
77881;BME280;67077;50.298;18.996;2024-03-08T09:04:00;98471.63;;;0.86;100.00
77881;BME280;67077;50.298;18.996;2024-03-08T09:06:28;98471.45;;;0.88;100.00
77881;BME280;67077;50.298;18.996;2024-03-08T09:08:57;98466.98;;;0.90;100.00
77881;BME280;67077;50.298;18.996;2024-03-08T09:11:25;98467.84;;;0.93;100.00
77881;BME280;67077;50.298;18.996;2024-03-08T09:13:54;98460.09;;;0.96;100.00
77881;BME280;67077;50.298;18.996;2024-03-08T09:16:22;98461.76;;;1.00;100.00
77881;BME280;67077;50.298;18.996;2024-03-08T09:18:50;98460.46;;;1.08;100.00
77881;BME280;67077;50.298;18.996;2024-03-08T09:21:18;98458.83;;;1.04;100.00
77881;BME280;67077;50.298;18.996;2024-03-08T09:23:46;98457.69;;;1.04;100.00
77881;BME280;67077;50.298;18.996;2024-03-08T09:26:14;98454.41;;;1.12;100.00
77881;BME280;67077;50.298;18.996;2024-03-08T09:28:44;98454.25;;;1.24;100.00
77881;BME280;67077;50.298;18.996;2024-03-08T09:31:13;98455.73;;;1.33;100.00
77881;BME280;67077;50.298;18.996;2024-03-08T09:33:42;98454.11;;;1.33;100.00
77881;BME280;67077;50.298;18.996;2024-03-08T09:36:10;98458.33;;;1.33;100.00
77881;BME280;67077;50.298;18.996;2024-03-08T09:38:40;98457.68;;;1.27;100.00
77881;BME280;67077;50.298;18.996;2024-03-08T09:41:08;98455.11;;;1.23;100.00
77881;BME280;67077;50.298;18.996;2024-03-08T09:43:38;98455.77;;;1.25;100.00
77881;BME280;67077;50.298;18.996;2024-03-08T09:46:07;98457.66;;;1.22;100.00
77881;BME280;67077;50.298;18.996;2024-03-08T09:48:35;98453.41;;;1.16;100.00
77881;BME280;67077;50.298;18.996;2024-03-08T09:51:04;98454.10;;;1.11;100.00
77881;BME280;67077;50.298;18.996;2024-03-08T09:53:33;98452.44;;;1.06;100.00
77881;BME280;67077;50.298;18.996;2024-03-08T09:56:01;98445.83;;;0.98;100.00
77881;BME280;67077;50.298;18.996;2024-03-08T09:58:31;98445.27;;;0.95;100.00
77881;BME280;67077;50.298;18.996;2024-03-08T10:01:03;98445.09;;;1.00;100.00
77881;BME280;67077;50.298;18.996;2024-03-08T10:03:32;98440.11;;;1.07;100.00
77881;BME280;67077;50.298;18.996;2024-03-08T10:06:00;98439.81;;;1.14;100.00
77881;BME280;67077;50.298;18.996;2024-03-08T10:08:29;98440.20;;;1.21;100.00
77881;BME280;67077;50.298;18.996;2024-03-08T10:10:57;98437.14;;;1.25;100.00
77881;BME280;67077;50.298;18.996;2024-03-08T10:13:28;98441.90;;;1.31;100.00
77881;BME280;67077;50.298;18.996;2024-03-08T10:15:56;98439.06;;;1.38;100.00
77881;BME280;67077;50.298;18.996;2024-03-08T10:18:24;98438.54;;;1.40;100.00
77881;BME280;67077;50.298;18.996;2024-03-08T10:21:03;98442.77;;;1.43;100.00
77881;BME280;67077;50.298;18.996;2024-03-08T10:23:36;98442.51;;;1.41;100.00
77881;BME280;67077;50.298;18.996;2024-03-08T10:26:15;98439.46;;;1.37;100.00
77881;BME280;67077;50.298;18.996;2024-03-08T10:28:45;98446.13;;;1.35;100.00
77881;BME280;67077;50.298;18.996;2024-03-08T10:31:16;98445.32;;;1.37;100.00
77881;BME280;67077;50.298;18.996;2024-03-08T10:33:45;98443.33;;;1.40;100.00
77881;BME280;67077;50.298;18.996;2024-03-08T10:36:14;98440.23;;;1.47;100.00
77881;BME280;67077;50.298;18.996;2024-03-08T10:38:44;98437.50;;;1.55;100.00
77881;BME280;67077;50.298;18.996;2024-03-08T10:41:16;98432.54;;;1.55;100.00
77881;BME280;67077;50.298;18.996;2024-03-08T10:46:35;98427.21;;;1.65;100.00
77881;BME280;67077;50.298;18.996;2024-03-08T10:49:08;98422.04;;;1.74;100.00
77881;BME280;67077;50.298;18.996;2024-03-08T10:51:40;98419.40;;;1.79;100.00
77881;BME280;67077;50.298;18.996;2024-03-08T10:54:10;98413.71;;;1.85;100.00
77881;BME280;67077;50.298;18.996;2024-03-08T10:56:39;98410.49;;;1.97;100.00
77881;BME280;67077;50.298;18.996;2024-03-08T10:59:08;98408.27;;;2.08;100.00
77881;BME280;67077;50.298;18.996;2024-03-08T11:01:39;98406.41;;;2.21;100.00
77881;BME280;67077;50.298;18.996;2024-03-08T11:04:21;98401.76;;;2.37;100.00
77881;BME280;67077;50.298;18.996;2024-03-08T11:06:51;98396.38;;;2.49;100.00
77881;BME280;67077;50.298;18.996;2024-03-08T11:09:36;98396.40;;;2.57;100.00
77881;BME280;67077;50.298;18.996;2024-03-08T11:12:21;98393.84;;;2.65;100.00
77881;BME280;67077;50.298;18.996;2024-03-08T11:14:53;98391.17;;;2.65;100.00
77881;BME280;67077;50.298;18.996;2024-03-08T11:19:56;98386.55;;;2.78;100.00
77881;BME280;67077;50.298;18.996;2024-03-08T11:22:32;98382.39;;;2.92;100.00
77881;BME280;67077;50.298;18.996;2024-03-08T11:25:03;98375.69;;;3.08;100.00
77881;BME280;67077;50.298;18.996;2024-03-08T11:27:36;98376.72;;;3.22;100.00
77881;BME280;67077;50.298;18.996;2024-03-08T11:30:07;98376.09;;;3.29;100.00
77881;BME280;67077;50.298;18.996;2024-03-08T11:33:15;98375.09;;;3.37;100.00
77881;BME280;67077;50.298;18.996;2024-03-08T11:37:05;98368.98;;;3.45;100.00
77881;BME280;67077;50.298;18.996;2024-03-08T11:40:00;98362.55;;;3.52;100.00
77881;BME280;67077;50.298;18.996;2024-03-08T11:43:16;98360.95;;;3.58;100.00
77881;BME280;67077;50.298;18.996;2024-03-08T11:45:44;98356.11;;;3.67;100.00
77881;BME280;67077;50.298;18.996;2024-03-08T11:48:12;98352.34;;;3.72;100.00
77881;BME280;67077;50.298;18.996;2024-03-08T11:51:01;98350.23;;;3.78;100.00
77881;BME280;67077;50.298;18.996;2024-03-08T11:53:31;98348.80;;;3.84;100.00
77881;BME280;67077;50.298;18.996;2024-03-08T11:56:11;98342.80;;;3.92;100.00
77881;BME280;67077;50.298;18.996;2024-03-08T11:59:14;98337.82;;;4.04;100.00
77881;BME280;67077;50.298;18.996;2024-03-08T12:02:02;98339.80;;;4.09;100.00
77881;BME280;67077;50.298;18.996;2024-03-08T12:04:31;98337.05;;;4.16;100.00
77881;BME280;67077;50.298;18.996;2024-03-08T12:07:00;98337.92;;;4.16;100.00
77881;BME280;67077;50.298;18.996;2024-03-08T12:10:21;98333.27;;;4.11;100.00
77881;BME280;67077;50.298;18.996;2024-03-08T12:12:51;98333.45;;;4.14;100.00
77881;BME280;67077;50.298;18.996;2024-03-08T12:15:22;98327.25;;;4.12;100.00
77881;BME280;67077;50.298;18.996;2024-03-08T12:17:51;98322.52;;;4.17;100.00
77881;BME280;67077;50.298;18.996;2024-03-08T12:20:22;98324.41;;;4.24;100.00
77881;BME280;67077;50.298;18.996;2024-03-08T12:22:55;98318.77;;;4.29;100.00
77881;BME280;67077;50.298;18.996;2024-03-08T12:25:27;98321.98;;;4.33;100.00
77881;BME280;67077;50.298;18.996;2024-03-08T12:27:55;98319.15;;;4.36;100.00
77881;BME280;67077;50.298;18.996;2024-03-08T12:30:26;98313.96;;;4.36;100.00
77881;BME280;67077;50.298;18.996;2024-03-08T12:32:56;98312.29;;;4.42;100.00
77881;BME280;67077;50.298;18.996;2024-03-08T12:35:28;98311.58;;;4.45;100.00
77881;BME280;67077;50.298;18.996;2024-03-08T12:37:58;98302.95;;;4.55;100.00
77881;BME280;67077;50.298;18.996;2024-03-08T12:40:31;98297.45;;;4.69;100.00
77881;BME280;67077;50.298;18.996;2024-03-08T12:43:10;98298.30;;;4.83;100.00
77881;BME280;67077;50.298;18.996;2024-03-08T12:45:40;98296.39;;;4.95;100.00
77881;BME280;67077;50.298;18.996;2024-03-08T12:48:13;98290.59;;;5.05;100.00
77881;BME280;67077;50.298;18.996;2024-03-08T12:50:43;98287.27;;;5.13;100.00
77881;BME280;67077;50.298;18.996;2024-03-08T12:53:16;98290.08;;;5.18;100.00
77881;BME280;67077;50.298;18.996;2024-03-08T12:55:45;98285.47;;;5.22;100.00
77881;BME280;67077;50.298;18.996;2024-03-08T12:58:29;98285.85;;;5.31;100.00
77881;BME280;67077;50.298;18.996;2024-03-08T13:00:59;98280.58;;;5.36;100.00
77881;BME280;67077;50.298;18.996;2024-03-08T13:03:28;98280.04;;;5.44;100.00